Ana Sayfa
METAR-TAF:

METAR-TAF

Havaalanları :

Beaumont, Teksas, Amerika Birleşik Devletleri

Enlem: 30-04-13N, Boylam: 094-12-54W, yükseklik: 10 m

Güncel hava durumu gözlemi

Rapor saat 04:55 UTC de 41 dakika önce yapıldı.
Rüzgar güneydan 4 kt
Sıcaklık 25°C
Nem 89%
Basınç 1015 hPa
Görüş mesafesi: 16.1 km
Açık gökyüzü

METAR: KBMT 160455Z AUTO 19004KT 10SM CLR 25/23 A2997 RMK AO2 T02510230

Saat: 23:36 (05:36 UTC)


TAF: eksik

4.000'den fazla havaalanı için hava durumu gözlemleri ve tahminleri (METAR ve TAF raporları).

Kullanılabilir istasyonlar harita üzerinde sarı ve kırmızı noktalarla gösterilir.

İstasyonun adını görmek için fareyi noktanın üzerinde gezdirin.

Sonrasında hava gözlem ve tahminlerini görmek için tıklayın.

Haritayı değiştirmek için: yaklaştırmak için siyah artı işaretli yeşil düğmeye ve uzaklaştırmak için de eksi işaretli düğmeye hızla tıklayın; bitişik haritalar için yeşil okları kullanın.


METAR-TAF: